Time;durP1;ratioP1;P1;durP2;ratioP2;P2;SDS_P1;SDS_P2;PMS_P1;PMS_P2;Temp;Humidity;BMP_temperature;BMP_pressure;BME280_temperature;BME280_humidity;BME280_pressure;Samples;Min_cycle;Max_cycle;Signal;HPM_P1;HPM_P2
2023/01/13 00:01:54;;;;;;;2.75;0.50;;;10.00;1.00;;;;;;7387413;19;20400;-74
2023/01/13 00:04:23;;;;;;;3.28;0.70;;;9.90;1.00;;;;;;7364549;19;20011;-75
2023/01/13 00:06:53;;;;;;;2.25;0.77;;;9.90;1.00;;;;;;7359340;19;20046;-75
2023/01/13 00:09:23;;;;;;;1.70;0.60;;;9.90;1.00;;;;;;7361238;19;20006;-75
2023/01/13 00:11:53;;;;;;;4.47;0.70;;;9.90;1.00;;;;;;7365618;19;20007;-75
2023/01/13 00:14:28;;;;;;;1.95;0.77;;;9.90;1.00;;;;;;7364400;19;20014;-75
2023/01/13 00:16:58;;;;;;;0.80;0.50;;;9.90;1.00;;;;;;7360195;19;20023;-77
2023/01/13 00:19:27;;;;;;;1.73;0.52;;;9.90;1.00;;;;;;7385313;19;20408;-75
2023/01/13 00:21:57;;;;;;;3.45;0.52;;;9.90;1.00;;;;;;7362775;19;20034;-77
2023/01/13 00:24:27;;;;;;;2.33;0.55;;;9.90;1.00;;;;;;7365928;19;20043;-75
2023/01/13 00:26:57;;;;;;;1.73;0.60;;;9.80;1.00;;;;;;7384802;19;20042;-75
2023/01/13 00:29:29;;;;;;;2.80;0.73;;;9.80;1.00;;;;;;7351551;19;20022;-75
2023/01/13 00:31:59;;;;;;;2.58;0.60;;;9.80;1.00;;;;;;7338008;19;20030;-74
2023/01/13 00:34:29;;;;;;;3.03;0.70;;;9.80;1.00;;;;;;7364549;19;20007;-75
2023/01/13 00:36:59;;;;;;;3.00;0.82;;;9.80;1.00;;;;;;7357392;19;20048;-76
2023/01/13 00:39:28;;;;;;;4.35;1.00;;;9.80;1.00;;;;;;7362657;19;20388;-76
2023/01/13 00:44:43;;;;;;;3.05;0.60;;;9.80;1.00;;;;;;7363490;19;20039;-76
2023/01/13 00:47:13;;;;;;;3.72;0.93;;;9.90;1.00;;;;;;7358751;19;20082;-77
2023/01/13 00:49:43;;;;;;;1.35;0.55;;;9.90;1.00;;;;;;7363636;19;20014;-76
2023/01/13 00:52:13;;;;;;;0.88;0.40;;;9.90;1.00;;;;;;7359490;19;20011;-76
2023/01/13 00:54:43;;;;;;;3.33;0.70;;;9.90;1.00;;;;;;7363807;19;20014;-76
2023/01/13 00:57:14;;;;;;;1.17;0.45;;;9.90;1.00;;;;;;7380186;19;20135;-76
2023/01/13 00:59:46;;;;;;;1.63;0.52;;;9.90;1.00;;;;;;7362085;19;20029;-76
2023/01/13 01:02:18;;;;;;;1.80;0.50;;;10.00;1.00;;;;;;7360417;19;20010;-76
2023/01/13 01:04:48;;;;;;;2.13;0.55;;;9.90;1.00;;;;;;7363761;19;20021;-75
2023/01/13 01:07:18;;;;;;;2.30;0.68;;;9.90;1.00;;;;;;7357785;19;20011;-75
2023/01/13 01:09:47;;;;;;;0.80;0.50;;;9.90;1.00;;;;;;7362543;19;20004;-75
2023/01/13 01:12:17;;;;;;;2.00;0.52;;;10.00;1.00;;;;;;7380645;19;20047;-75
2023/01/13 01:14:49;;;;;;;1.27;0.63;;;9.90;1.00;;;;;;7363724;19;20093;-75
2023/01/13 01:17:19;;;;;;;2.33;0.80;;;9.90;1.00;;;;;;7357280;19;20060;-75
2023/01/13 01:19:49;;;;;;;3.35;0.70;;;10.00;1.00;;;;;;7362857;19;20494;-76
2023/01/13 01:22:19;;;;;;;1.75;0.70;;;10.10;1.00;;;;;;7357166;19;20486;-75
2023/01/13 01:24:49;;;;;;;3.03;0.50;;;10.10;1.00;;;;;;7362560;19;20018;-75
2023/01/13 01:27:19;;;;;;;1.95;0.50;;;10.10;1.00;;;;;;7377938;19;20019;-74
2023/01/13 01:29:51;;;;;;;2.30;0.50;;;10.20;1.00;;;;;;7361444;19;20018;-75
2023/01/13 01:32:21;;;;;;;2.97;0.93;;;10.10;1.00;;;;;;7356858;19;20007;-74
2023/01/13 01:34:52;;;;;;;1.85;0.60;;;10.10;1.00;;;;;;7361820;19;20055;-74
2023/01/13 01:37:22;;;;;;;2.28;0.50;;;10.10;1.00;;;;;;7357001;19;20367;-74
2023/01/13 01:39:52;;;;;;;2.13;0.60;;;10.20;1.00;;;;;;7360703;19;20022;-74
2023/01/13 01:45:16;;;;;;;2.75;0.60;;;10.20;1.00;;;;;;7362879;19;20010;-75
2023/01/13 01:47:49;;;;;;;0.55;0.40;;;10.20;1.00;;;;;;7359041;19;20010;-75
2023/01/13 01:50:21;;;;;;;1.90;0.60;;;10.10;1.00;;;;;;7357260;19;20014;-75
2023/01/13 01:52:55;;;;;;;1.13;0.30;;;10.10;1.00;;;;;;7358159;19;20011;-74
2023/01/13 01:55:29;;;;;;;2.35;0.70;;;10.10;1.00;;;;;;7359663;19;20014;-75
2023/01/13 01:58:03;;;;;;;1.38;0.63;;;10.10;1.00;;;;;;7360447;19;20530;-75
2023/01/13 02:00:35;;;;;;;2.90;0.70;;;10.10;1.00;;;;;;7360338;19;20018;-74
2023/01/13 02:03:06;;;;;;;2.58;0.80;;;10.10;1.00;;;;;;7378721;19;20015;-74
2023/01/13 02:05:37;;;;;;;2.08;0.60;;;10.10;1.00;;;;;;7356881;19;20011;-75
2023/01/13 02:08:12;;;;;;;1.33;0.60;;;10.10;1.00;;;;;;7361072;19;20011;-74
2023/01/13 02:10:49;;;;;;;2.97;0.77;;;10.10;1.00;;;;;;7360948;19;20244;-74
2023/01/13 02:13:22;;;;;;;1.02;0.38;;;10.10;1.00;;;;;;7357614;19;20015;-74
2023/01/13 02:16:04;;;;;;;1.50;0.43;;;10.10;1.00;;;;;;7356732;19;20052;-75
2023/01/13 02:18:49;;;;;;;2.72;1.25;;;10.10;1.00;;;;;;7360356;19;20038;-75
2023/01/13 02:21:52;;;;;;;1.67;0.40;;;10.20;1.00;;;;;;7382732;19;20018;-74
2023/01/13 02:24:54;;;;;;;1.90;0.50;;;10.20;1.00;;;;;;7257290;19;2005678;-74
2023/01/13 02:27:51;;;;;;;1.55;0.45;;;10.20;1.00;;;;;;7378880;19;20006;-74
2023/01/13 02:33:37;;;;;;;2.33;0.50;;;10.10;1.00;;;;;;7255224;19;2004528;-74
2023/01/13 02:36:11;;;;;;;;;;;10.10;1.00;;;;;;7379206;19;20018;-74
2023/01/13 02:38:51;;;;;;;2.55;0.50;;;10.10;1.00;;;;;;7359688;19;20164;-74
2023/01/13 02:44:12;;;;;;;1.50;0.40;;;10.20;1.00;;;;;;7358218;19;20549;-75
2023/01/13 02:46:53;;;;;;;4.53;0.73;;;10.20;1.00;;;;;;7355428;19;20015;-75
2023/01/13 02:49:31;;;;;;;3.65;0.73;;;10.20;1.00;;;;;;7359513;19;20473;-75
2023/01/13 02:52:08;;;;;;;0.80;0.45;;;10.20;1.00;;;;;;7357597;19;20006;-75
2023/01/13 02:54:41;;;;;;;2.20;0.57;;;10.20;1.00;;;;;;7360507;19;20006;-75
2023/01/13 02:57:13;;;;;;;1.67;0.50;;;10.20;1.00;;;;;;7376194;19;20039;-74
2023/01/13 02:59:45;;;;;;;0.73;0.40;;;10.10;1.00;;;;;;7358073;19;20010;-74
2023/01/13 03:02:23;;;;;;;2.35;0.50;;;10.20;1.00;;;;;;7359212;19;20513;-74
2023/01/13 03:04:55;;;;;;;1.73;0.80;;;10.10;1.00;;;;;;7367389;19;20007;-75
2023/01/13 03:08:01;;;;;;;1.73;0.40;;;10.10;1.00;;;;;;7361968;19;20029;-74
2023/01/13 03:10:49;;;;;;;1.58;0.70;;;10.20;1.00;;;;;;7363952;19;20077;-75
2023/01/13 03:13:35;;;;;;;2.22;0.47;;;10.10;1.00;;;;;;7362989;19;20022;-74
2023/01/13 03:16:16;;;;;;;3.33;0.68;;;10.10;1.00;;;;;;7362795;19;20014;-75
2023/01/13 03:18:58;;;;;;;2.33;0.57;;;10.10;1.00;;;;;;7366635;19;20220;-75
2023/01/13 03:21:33;;;;;;;1.20;0.60;;;10.10;1.00;;;;;;7366635;19;20505;-75
2023/01/13 03:24:08;;;;;;;2.40;0.47;;;10.10;1.00;;;;;;7383817;19;20017;-75
2023/01/13 03:26:45;;;;;;;3.45;1.73;;;10.10;1.00;;;;;;7360142;19;20352;-75
2023/01/13 03:29:20;;;;;;;1.45;0.65;;;10.10;1.00;;;;;;7365874;19;20014;-75
2023/01/13 03:32:01;;;;;;;2.35;0.60;;;10.10;1.00;;;;;;7365106;19;20013;-75
2023/01/13 03:34:39;;;;;;;3.72;1.30;;;10.00;1.00;;;;;;7366441;19;20014;-75
2023/01/13 03:37:10;;;;;;;1.55;0.50;;;10.10;1.00;;;;;;7360201;19;20974;-75
2023/01/13 03:39:45;;;;;;;4.00;0.70;;;10.00;1.00;;;;;;7364274;19;20042;-75
2023/01/13 03:42:20;;;;;;;1.85;0.60;;;10.00;1.00;;;;;;7383108;19;20020;-75
2023/01/13 03:44:52;;;;;;;2.42;0.50;;;10.10;1.00;;;;;;7366370;19;20014;-75
2023/01/13 03:47:26;;;;;;;0.90;0.60;;;10.00;1.00;;;;;;7359874;19;20819;-75
2023/01/13 03:50:04;;;;;;;1.05;0.40;;;10.10;1.00;;;;;;7365037;19;20013;-75
2023/01/13 03:52:37;;;;;;;2.55;0.60;;;10.10;1.00;;;;;;7361500;19;20014;-75
2023/01/13 03:55:12;;;;;;;1.52;0.60;;;10.10;1.00;;;;;;7366442;19;20017;-75
2023/01/13 03:57:48;;;;;;;1.98;0.80;;;10.00;1.00;;;;;;7362308;19;20190;-75
2023/01/13 04:00:20;;;;;;;1.70;0.70;;;10.00;1.00;;;;;;7385154;19;20085;-76
2023/01/13 04:02:52;;;;;;;0.98;0.57;;;10.00;1.00;;;;;;7360497;19;20467;-75
2023/01/13 04:05:26;;;;;;;2.75;0.75;;;10.10;1.00;;;;;;7362919;19;20744;-74
2023/01/13 04:08:04;;;;;;;1.55;0.73;;;10.00;1.00;;;;;;7362214;19;20470;-74
2023/01/13 04:10:40;;;;;;;3.00;0.70;;;10.10;1.00;;;;;;7363419;19;20009;-74
2023/01/13 04:13:14;;;;;;;1.55;0.35;;;10.00;1.00;;;;;;7360039;19;20382;-75
2023/01/13 04:15:46;;;;;;;3.67;0.50;;;9.90;1.00;;;;;;7360690;19;20014;-75
2023/01/13 04:18:19;;;;;;;1.08;0.35;;;10.00;1.00;;;;;;7385360;19;20474;-74
2023/01/13 04:20:53;;;;;;;2.28;1.10;;;10.00;1.00;;;;;;7364648;19;20006;-74
2023/01/13 04:23:24;;;;;;;1.25;0.45;;;10.00;1.00;;;;;;7358120;19;20785;-74
2023/01/13 04:25:54;;;;;;;1.90;0.80;;;10.00;1.00;;;;;;7360150;19;20645;-74
2023/01/13 04:28:24;;;;;;;1.95;0.50;;;10.00;1.00;;;;;;7363894;19;20605;-75
2023/01/13 04:30:54;;;;;;;2.90;0.50;;;10.10;1.00;;;;;;7363572;19;20018;-75
2023/01/13 04:33:24;;;;;;;1.67;0.60;;;10.10;1.00;;;;;;7382141;19;20043;-75
2023/01/13 04:35:57;;;;;;;1.85;0.60;;;10.00;1.00;;;;;;7360156;19;20474;-74
2023/01/13 04:38:27;;;;;;;3.10;0.47;;;10.00;1.00;;;;;;7362497;19;20011;-74
2023/01/13 04:40:56;;;;;;;0.98;0.50;;;10.10;1.00;;;;;;7364131;19;20017;-75
2023/01/13 04:43:26;;;;;;;4.72;0.60;;;10.10;1.00;;;;;;7360304;19;20006;-74
2023/01/13 04:45:56;;;;;;;1.58;0.55;;;10.20;1.00;;;;;;7359256;19;20053;-74
2023/01/13 04:48:26;;;;;;;1.05;0.40;;;10.20;1.00;;;;;;7384579;19;20521;-74
2023/01/13 04:50:58;;;;;;;1.27;0.73;;;10.20;1.00;;;;;;7364194;19;20305;-75
2023/01/13 04:53:28;;;;;;;2.10;0.40;;;10.20;1.00;;;;;;7359276;19;20017;-74
2023/01/13 04:55:58;;;;;;;2.17;0.80;;;10.20;1.00;;;;;;7358497;19;20038;-75
2023/01/13 04:58:27;;;;;;;2.63;0.68;;;10.20;1.00;;;;;;7362025;19;20347;-74
2023/01/13 05:00:57;;;;;;;1.38;0.50;;;10.20;1.00;;;;;;7362536;19;20017;-74
2023/01/13 05:03:27;;;;;;;2.53;0.50;;;10.20;1.00;;;;;;7371347;19;20018;-75
2023/01/13 05:05:59;;;;;;;2.95;0.50;;;10.20;1.00;;;;;;7380647;19;20011;-75
2023/01/13 05:08:29;;;;;;;0.98;0.40;;;10.20;1.00;;;;;;7361617;19;20019;-75
2023/01/13 05:16:58;;;;;;;0.75;0.40;;;10.10;1.00;;;;;;7362848;19;20474;-75
2023/01/13 05:19:17;;;;;;;2.10;0.50;;;10.20;1.00;;;;;;7361884;19;20010;-75
2023/01/13 05:27:17;;;;;;;1.25;0.60;;;10.20;1.00;;;;;;7380781;19;19919;-75
2023/01/13 05:29:47;;;;;;;1.20;0.52;;;10.20;1.00;;;;;;7359831;19;20018;-75
2023/01/13 05:32:17;;;;;;;1.20;0.50;;;10.10;1.00;;;;;;7358221;19;20767;-74
2023/01/13 05:34:49;;;;;;;3.15;0.60;;;10.20;1.00;;;;;;7363593;19;20022;-75
2023/01/13 05:37:23;;;;;;;2.83;0.60;;;10.30;1.00;;;;;;7357998;19;20022;-75
2023/01/13 05:45:18;;;;;;;2.00;0.60;;;10.20;1.00;;;;;;7383788;19;20020;-75
2023/01/13 05:47:47;;;;;;;2.00;0.60;;;10.20;1.00;;;;;;7357426;19;20015;-76
2023/01/13 05:50:18;;;;;;;0.50;0.30;;;10.20;1.00;;;;;;7360806;19;20010;-76
2023/01/13 05:52:50;;;;;;;4.68;0.52;;;10.20;1.00;;;;;;7357640;19;20428;-75
2023/01/13 05:55:20;;;;;;;1.50;0.50;;;10.20;1.00;;;;;;7363063;19;20042;-75
2023/01/13 05:57:50;;;;;;;1.42;0.32;;;10.20;1.00;;;;;;7356616;19;20018;-75
2023/01/13 06:00:23;;;;;;;0.80;0.40;;;10.10;1.00;;;;;;7381567;19;20078;-75
2023/01/13 06:02:53;;;;;;;0.82;0.40;;;10.10;1.00;;;;;;7356933;19;20013;-76
2023/01/13 06:05:23;;;;;;;0.85;0.50;;;10.10;1.00;;;;;;7360782;19;20459;-76
2023/01/13 06:07:58;;;;;;;1.55;0.50;;;10.20;1.00;;;;;;7357040;19;20021;-75
2023/01/13 06:10:28;;;;;;;;;;;10.20;1.00;;;;;;7360496;19;20017;-74
2023/01/13 06:12:58;;;;;;;0.90;0.45;;;10.10;1.00;;;;;;7355450;19;19918;-75
2023/01/13 06:15:28;;;;;;;1.15;0.43;;;10.20;1.00;;;;;;7366808;19;20534;-75
2023/01/13 06:17:58;;;;;;;1.77;0.80;;;10.20;1.00;;;;;;7378440;19;20007;-75
2023/01/13 06:20:29;;;;;;;1.48;0.40;;;10.20;1.00;;;;;;7359313;19;20015;-75
2023/01/13 06:23:01;;;;;;;0.98;0.50;;;10.20;1.00;;;;;;7356004;19;20583;-75
2023/01/13 06:25:41;;;;;;;0.43;0.30;;;10.20;1.00;;;;;;7361190;19;20011;-76
2023/01/13 06:28:11;;;;;;;1.65;0.52;;;10.20;1.00;;;;;;7354753;19;20018;-76
2023/01/13 06:30:46;;;;;;;0.50;0.40;;;10.20;1.00;;;;;;7359879;19;20629;-75
2023/01/13 06:33:20;;;;;;;2.08;0.68;;;10.20;1.00;;;;;;7378309;19;20021;-75
2023/01/13 06:35:54;;;;;;;0.80;0.40;;;10.10;1.00;;;;;;7362810;19;20035;-75
2023/01/13 06:38:30;;;;;;;1.73;0.60;;;10.10;1.00;;;;;;7361927;19;20486;-76
2023/01/13 06:41:00;;;;;;;1.05;0.50;;;10.10;1.00;;;;;;7367474;19;20013;-76
2023/01/13 06:43:27;;;;;;;1.00;0.60;;;10.10;1.00;;;;;;7362998;19;20014;-75
2023/01/13 06:45:59;;;;;;;0.60;0.35;;;10.10;1.00;;;;;;7367620;19;20378;-75
2023/01/13 06:48:34;;;;;;;2.30;0.73;;;10.10;1.00;;;;;;7362726;19;20015;-75
2023/01/13 06:51:04;;;;;;;1.88;0.50;;;10.20;1.00;;;;;;7389030;19;20023;-75
2023/01/13 06:53:37;;;;;;;1.40;0.40;;;10.20;1.00;;;;;;7363615;19;20011;-75
2023/01/13 06:56:07;;;;;;;3.35;1.00;;;10.20;1.00;;;;;;7366940;19;20010;-75
2023/01/13 06:58:36;;;;;;;1.63;0.70;;;10.20;1.00;;;;;;7360471;19;20010;-75
2023/01/13 07:01:06;;;;;;;2.47;1.33;;;10.10;1.00;;;;;;7367021;19;20018;-76
2023/01/13 07:03:36;;;;;;;3.35;1.40;;;10.20;1.00;;;;;;7362180;19;20021;-76
2023/01/13 07:06:07;;;;;;;3.53;1.38;;;10.10;1.00;;;;;;7388270;19;20378;-75
2023/01/13 07:08:39;;;;;;;3.25;1.60;;;10.10;1.00;;;;;;7361229;19;20049;-74
2023/01/13 07:11:09;;;;;;;2.47;1.05;;;10.10;1.00;;;;;;7365002;19;20352;-75
2023/01/13 07:16:23;;;;;;;2.25;0.60;;;10.10;1.00;;;;;;7365527;19;20011;-75
2023/01/13 07:18:52;;;;;;;1.65;0.70;;;10.10;1.00;;;;;;7363124;19;20413;-75
2023/01/13 07:21:22;;;;;;;0.77;0.55;;;10.10;1.00;;;;;;7388219;19;20015;-75
2023/01/13 07:23:55;;;;;;;1.02;0.50;;;10.10;1.00;;;;;;7362977;19;20031;-75
2023/01/13 07:26:24;;;;;;;0.50;0.40;;;10.10;1.00;;;;;;7364259;19;20006;-74
2023/01/13 07:28:54;;;;;;;0.95;0.40;;;10.10;1.00;;;;;;7362529;19;20474;-74
2023/01/13 07:31:24;;;;;;;1.50;0.47;;;10.10;1.00;;;;;;7365973;19;20022;-75
2023/01/13 07:33:54;;;;;;;1.05;0.40;;;10.10;1.00;;;;;;7362875;19;20022;-75
2023/01/13 07:36:24;;;;;;;1.17;0.55;;;10.10;1.00;;;;;;7387894;19;20010;-75
2023/01/13 07:38:57;;;;;;;1.40;0.40;;;10.10;1.00;;;;;;7362484;19;20027;-75
2023/01/13 07:44:09;;;;;;;0.95;0.63;;;10.20;1.00;;;;;;7361261;19;20027;-75
2023/01/13 07:46:40;;;;;;;0.73;0.45;;;10.10;1.00;;;;;;7360475;19;20073;-76
2023/01/13 07:49:11;;;;;;;2.95;0.30;;;10.10;1.00;;;;;;7363672;19;20017;-74
2023/01/13 07:51:41;;;;;;;4.38;0.90;;;10.10;1.00;;;;;;7365377;19;20026;-74
2023/01/13 07:54:14;;;;;;;0.60;0.50;;;10.20;1.00;;;;;;7384290;19;20014;-76
2023/01/13 07:56:43;;;;;;;1.35;0.40;;;10.20;1.00;;;;;;7359292;19;20007;-73
2023/01/13 07:59:13;;;;;;;1.08;0.38;;;10.20;1.00;;;;;;7363290;19;20015;-74
2023/01/13 08:01:43;;;;;;;1.10;0.30;;;10.30;1.00;;;;;;7365555;19;20003;-74
2023/01/13 08:04:13;;;;;;;0.68;0.38;;;10.20;1.00;;;;;;7360587;19;20391;-73
2023/01/13 08:06:43;;;;;;;0.98;0.40;;;10.30;1.00;;;;;;7359625;19;20029;-73
2023/01/13 08:09:15;;;;;;;0.68;0.40;;;10.30;1.00;;;;;;7385195;19;20352;-74
2023/01/13 08:13:16;;;;;;;1.27;0.30;;;10.30;1.00;;;;;;7363504;19;20605;-74
2023/01/13 08:14:35;;;;;;;0.45;0.28;;;10.30;1.00;;;;;;7363149;19;20010;-73
2023/01/13 08:17:04;;;;;;;0.98;0.52;;;10.30;1.00;;;;;;7358602;19;20013;-73
2023/01/13 08:19:34;;;;;;;0.98;0.47;;;10.20;1.00;;;;;;7363843;19;20014;-73
2023/01/13 08:22:04;;;;;;;0.52;0.30;;;10.20;1.00;;;;;;7361722;19;20014;-74
2023/01/13 08:24:36;;;;;;;3.33;0.40;;;10.20;1.00;;;;;;7362343;19;20017;-73
2023/01/13 08:27:06;;;;;;;3.60;0.50;;;10.10;1.00;;;;;;7381353;19;20058;-72
2023/01/13 08:29:36;;;;;;;3.50;0.50;;;10.00;1.00;;;;;;7361811;19;20011;-72
2023/01/13 08:32:06;;;;;;;0.63;0.30;;;9.90;1.60;;;;;;7361203;19;20015;-72
2023/01/13 08:34:37;;;;;;;0.70;0.30;;;9.80;4.70;;;;;;7363205;19;20011;-72
2023/01/13 08:37:07;;;;;;;2.15;0.50;;;9.70;6.00;;;;;;7358093;19;20656;-73
2023/01/13 08:39:40;;;;;;;2.13;0.40;;;9.60;9.00;;;;;;7361831;19;20018;-73
2023/01/13 08:42:10;;;;;;;1.30;0.50;;;9.50;10.10;;;;;;7382328;19;20085;-73
2023/01/13 08:44:39;;;;;;;1.35;0.43;;;9.50;11.60;;;;;;7361577;19;20347;-73
2023/01/13 08:47:09;;;;;;;0.93;0.43;;;9.50;12.30;;;;;;7358412;19;20018;-72
2023/01/13 08:49:39;;;;;;;1.55;0.63;;;9.50;12.20;;;;;;7362364;19;20023;-72
2023/01/13 08:52:09;;;;;;;1.85;0.65;;;9.40;13.10;;;;;;7360372;19;20406;-71
2023/01/13 08:54:42;;;;;;;1.70;0.50;;;9.30;15.30;;;;;;7362233;19;20011;-73
2023/01/13 08:57:11;;;;;;;3.42;0.60;;;8.80;23.40;;;;;;7379883;19;20014;-72
2023/01/13 08:59:44;;;;;;;7.03;0.50;;;8.50;28.60;;;;;;7360581;19;20014;-73
2023/01/13 09:02:16;;;;;;;2.33;0.60;;;8.10;29.40;;;;;;7359016;19;20011;-71
2023/01/13 09:04:46;;;;;;;0.55;0.40;;;8.00;34.70;;;;;;7361416;19;20507;-72
2023/01/13 09:07:16;;;;;;;0.82;0.43;;;8.00;31.60;;;;;;7357770;19;20018;-74
2023/01/13 09:09:50;;;;;;;1.40;0.30;;;8.10;30.30;;;;;;7361973;19;20018;-74
2023/01/13 09:15:03;;;;;;;1.88;0.30;;;8.20;32.20;;;;;;7362495;19;20011;-73
2023/01/13 09:17:33;;;;;;;1.58;0.45;;;8.30;27.20;;;;;;7357094;19;20539;-73
2023/01/13 09:20:02;;;;;;;1.55;0.47;;;8.30;24.40;;;;;;7362360;19;20013;-73
2023/01/13 09:22:36;;;;;;;0.90;0.43;;;8.40;23.10;;;;;;7359933;19;20474;-73
2023/01/13 09:25:09;;;;;;;0.60;0.35;;;8.40;20.20;;;;;;7360598;19;20007;-73
2023/01/13 09:27:39;;;;;;;1.55;0.55;;;8.50;14.30;;;;;;7358102;19;20014;-73
2023/01/13 09:30:10;;;;;;;0.95;0.35;;;8.50;15.60;;;;;;7381360;19;20034;-73
2023/01/13 09:32:40;;;;;;;4.43;0.40;;;8.50;14.90;;;;;;7358531;19;20503;-74
2023/01/13 09:35:10;;;;;;;0.63;0.22;;;8.50;13.90;;;;;;7360353;19;20021;-73
2023/01/13 09:37:43;;;;;;;2.58;0.40;;;8.60;11.30;;;;;;7356871;19;20014;-74
2023/01/13 09:40:21;;;;;;;0.68;0.35;;;8.60;10.40;;;;;;7360436;19;20006;-75
2023/01/13 09:45:42;;;;;;;1.27;0.70;;;8.80;11.10;;;;;;7360785;19;20525;-73
2023/01/13 09:48:17;;;;;;;1.67;0.50;;;8.80;7.80;;;;;;7378180;19;20028;-74
2023/01/13 09:50:59;;;;;;;0.73;0.47;;;8.80;8.80;;;;;;7360297;19;20022;-73
2023/01/13 09:53:32;;;;;;;1.23;0.52;;;8.70;7.80;;;;;;7355579;19;20021;-74
2023/01/13 09:56:05;;;;;;;1.20;0.32;;;8.70;8.70;;;;;;7360201;19;20025;-74
2023/01/13 09:58:35;;;;;;;1.70;0.50;;;8.80;8.20;;;;;;7354585;19;20021;-74
2023/01/13 10:01:17;;;;;;;1.13;0.50;;;8.80;8.50;;;;;;7361447;19;20010;-74
2023/01/13 10:03:48;;;;;;;0.55;0.40;;;8.80;9.10;;;;;;7357817;19;20020;-73
2023/01/13 10:06:26;;;;;;;1.25;0.40;;;8.80;7.80;;;;;;7380468;19;20090;-74
2023/01/13 10:08:55;;;;;;;1.15;0.50;;;8.80;7.00;;;;;;7357052;19;20040;-74
2023/01/13 10:14:21;;;;;;;1.63;0.45;;;8.90;7.80;;;;;;7357590;19;20010;-74
2023/01/13 10:16:57;;;;;;;1.63;0.77;;;9.00;7.00;;;;;;7358586;19;20068;-75
2023/01/13 10:19:31;;;;;;;5.45;0.77;;;9.00;6.60;;;;;;7359357;19;20123;-74
2023/01/13 10:22:22;;;;;;;1.98;0.70;;;9.00;5.00;;;;;;7359470;19;20014;-75
2023/01/13 10:25:22;;;;;;;3.15;0.80;;;9.00;5.20;;;;;;7358210;19;20038;-72
2023/01/13 10:27:57;;;;;;;5.18;0.85;;;9.10;5.80;;;;;;7356146;19;20722;-74
2023/01/13 10:30:30;;;;;;;4.50;1.00;;;9.10;4.60;;;;;;7379710;19;20007;-73
2023/01/13 10:33:02;;;;;;;6.97;1.10;;;9.00;2.70;;;;;;7379046;19;20031;-73
2023/01/13 10:35:51;;;;;;;4.03;0.90;;;9.00;2.70;;;;;;7359253;19;20427;-74
2023/01/13 10:38:24;;;;;;;3.65;0.80;;;9.10;2.80;;;;;;7355540;19;20015;-75
2023/01/13 10:40:55;;;;;;;3.78;0.90;;;9.10;2.30;;;;;;7359501;19;20474;-74
2023/01/13 10:43:28;;;;;;;3.03;1.30;;;9.10;1.70;;;;;;7357604;19;20010;-74
2023/01/13 10:46:05;;;;;;;5.88;1.08;;;9.10;4.20;;;;;;7359964;19;20020;-75
2023/01/13 10:48:38;;;;;;;5.45;1.05;;;9.10;3.90;;;;;;7353961;19;20006;-74
2023/01/13 10:51:21;;;;;;;3.42;1.00;;;9.00;4.80;;;;;;7381920;19;20043;-75
2023/01/13 10:53:58;;;;;;;3.20;0.90;;;9.00;4.80;;;;;;7356321;19;20022;-75
2023/01/13 10:56:30;;;;;;;3.15;0.80;;;9.10;5.90;;;;;;7357765;19;20026;-74
2023/01/13 10:59:25;;;;;;;2.03;0.52;;;8.80;4.30;;;;;;7356284;19;20010;-74
2023/01/13 11:02:01;;;;;;;7.80;4.03;;;8.80;5.10;;;;;;7359010;19;20117;-74
2023/01/13 11:04:41;;;;;;;2.00;0.35;;;8.80;4.60;;;;;;7358989;19;20010;-73
2023/01/13 11:07:24;;;;;;;1.60;0.70;;;8.50;2.10;;;;;;7353567;19;20774;-73
2023/01/13 11:10:08;;;;;;;3.75;0.77;;;8.60;1.90;;;;;;7357562;19;20311;-73
2023/01/13 11:12:49;;;;;;;1.85;0.80;;;8.60;2.90;;;;;;7358061;19;20035;-74
2023/01/13 11:15:33;;;;;;;2.50;0.70;;;8.80;3.60;;;;;;7381107;19;20018;-74
2023/01/13 11:18:06;;;;;;;1.92;0.70;;;8.80;2.30;;;;;;7354393;19;20017;-74
2023/01/13 11:20:41;;;;;;;2.77;1.30;;;8.80;1.00;;;;;;7358055;19;20006;-75
2023/01/13 11:23:20;;;;;;;2.78;0.93;;;8.80;1.00;;;;;;7360849;19;20014;-74
2023/01/13 11:25:55;;;;;;;3.13;0.93;;;8.80;1.00;;;;;;7364604;19;20021;-76
2023/01/13 11:28:45;;;;;;;1.88;0.57;;;8.70;1.00;;;;;;7357426;19;20022;-74
2023/01/13 11:31:24;;;;;;;5.22;1.17;;;8.70;1.00;;;;;;7361948;19;20027;-75
2023/01/13 11:33:58;;;;;;;3.30;0.70;;;8.70;1.00;;;;;;7368961;19;20011;-76
2023/01/13 11:36:36;;;;;;;4.05;1.30;;;8.70;1.00;;;;;;7367887;19;20426;-76
2023/01/13 11:39:20;;;;;;;4.55;1.27;;;8.70;1.50;;;;;;7385389;19;20014;-75
2023/01/13 11:44:46;;;;;;;3.67;0.85;;;8.80;1.30;;;;;;7363266;19;20011;-76
2023/01/13 11:47:23;;;;;;;9.25;1.23;;;8.80;1.00;;;;;;7361004;19;20097;-76
2023/01/13 11:49:53;;;;;;;4.43;0.90;;;8.90;1.00;;;;;;7358016;19;20010;-75
2023/01/13 11:52:29;;;;;;;3.83;0.73;;;8.90;1.00;;;;;;7363265;19;20013;-75
2023/01/13 11:55:32;;;;;;;6.95;2.63;;;8.90;1.00;;;;;;7362963;19;20026;-76
2023/01/13 11:58:29;;;;;;;5.68;1.13;;;9.10;1.00;;;;;;7361950;19;20015;-76
2023/01/13 12:01:28;;;;;;;3.60;0.93;;;9.00;1.00;;;;;;7358050;19;20006;-76
2023/01/13 12:04:22;;;;;;;3.97;0.93;;;9.40;1.00;;;;;;7365195;19;20006;-76
2023/01/13 12:07:00;;;;;;;5.13;1.02;;;9.60;1.00;;;;;;7360934;19;20103;-76
2023/01/13 12:09:39;;;;;;;8.40;1.30;;;9.50;1.00;;;;;;7357772;19;20054;-77
2023/01/13 12:12:22;;;;;;;4.82;1.23;;;9.70;1.00;;;;;;7386730;19;20086;-77
2023/01/13 12:15:29;;;;;;;4.78;1.27;;;9.70;1.00;;;;;;7365181;19;20010;-77
2023/01/13 12:18:23;;;;;;;5.05;1.25;;;9.90;1.00;;;;;;7364549;19;20013;-77
2023/01/13 12:21:11;;;;;;;2.65;0.82;;;10.00;1.00;;;;;;7357925;19;20009;-78
2023/01/13 12:23:52;;;;;;;5.38;1.00;;;10.00;1.00;;;;;;7363660;19;20807;-77
2023/01/13 12:26:22;;;;;;;5.25;1.10;;;9.90;1.00;;;;;;7363027;19;20006;-76
2023/01/13 12:29:00;;;;;;;5.03;1.40;;;9.80;1.00;;;;;;7363792;19;20035;-77
2023/01/13 12:31:31;;;;;;;6.07;1.40;;;9.90;1.00;;;;;;7357906;19;20046;-78
2023/01/13 12:34:28;;;;;;;3.50;0.82;;;10.10;1.00;;;;;;7362579;19;20015;-74
2023/01/13 12:37:08;;;;;;;4.75;0.73;;;10.10;1.00;;;;;;7363865;19;20565;-75
2023/01/13 12:39:47;;;;;;;4.88;1.00;;;9.90;1.00;;;;;;7355848;19;20498;-77
2023/01/13 12:45:20;;;;;;;4.10;0.88;;;10.10;1.00;;;;;;7363358;19;20082;-76
2023/01/13 12:47:50;;;;;;;2.55;0.65;;;10.00;1.00;;;;;;7362039;19;20011;-75
2023/01/13 12:50:40;;;;;;;3.72;1.05;;;10.10;1.00;;;;;;7356291;19;20010;-78
2023/01/13 12:53:37;;;;;;;4.80;1.00;;;9.90;1.00;;;;;;7359834;19;20043;-75
2023/01/13 12:56:38;;;;;;;2.88;1.00;;;10.20;1.00;;;;;;7359596;19;20069;-75
2023/01/13 12:59:47;;;;;;;5.03;0.80;;;10.40;1.00;;;;;;7357301;19;20051;-77
2023/01/13 13:02:38;;;;;;;6.55;1.65;;;10.20;1.00;;;;;;7361065;19;20027;-76
2023/01/13 13:05:38;;;;;;;5.78;1.27;;;10.20;1.00;;;;;;7363330;19;20014;-75
2023/01/13 13:08:16;;;;;;;5.50;1.02;;;9.50;1.00;;;;;;7359862;19;20006;-75
2023/01/13 13:13:16;;;;;;;6.32;1.48;;;9.20;1.00;;;;;;7354324;19;20396;-75
2023/01/13 13:14:10;;;;;;;3.25;0.90;;;9.20;1.00;;;;;;7357800;19;20506;-75
2023/01/13 13:16:59;;;;;;;3.45;1.65;;;9.30;1.00;;;;;;7363552;19;20010;-76
2023/01/13 13:19:46;;;;;;;5.10;1.73;;;9.30;1.00;;;;;;7356783;19;20021;-75
2023/01/13 13:22:46;;;;;;;7.63;1.17;;;9.50;1.00;;;;;;7358918;19;20038;-76
2023/01/13 13:25:23;;;;;;;4.45;1.40;;;9.50;1.00;;;;;;7362474;19;20006;-76
2023/01/13 13:28:21;;;;;;;6.85;1.40;;;9.60;1.00;;;;;;7361574;19;20018;-75
2023/01/13 13:31:06;;;;;;;4.00;1.23;;;9.50;1.00;;;;;;7356554;19;20121;-77
2023/01/13 13:33:49;;;;;;;6.80;1.10;;;9.50;1.00;;;;;;7362318;19;20015;-76
2023/01/13 13:36:55;;;;;;;4.97;1.35;;;9.60;1.00;;;;;;7384795;19;20022;-76
2023/01/13 13:47:44;;;;;;;5.72;1.40;;;9.80;1.00;;;;;;7360380;19;20355;-77
2023/01/13 13:50:18;;;;;;;4.40;1.70;;;9.80;1.00;;;;;;7354377;19;20006;-76
2023/01/13 13:52:54;;;;;;;4.05;1.15;;;9.90;1.00;;;;;;7361246;19;20011;-76
2023/01/13 13:55:25;;;;;;;4.38;1.23;;;9.90;1.00;;;;;;7361470;19;20101;-76
2023/01/13 13:57:57;;;;;;;4.32;1.20;;;9.80;1.00;;;;;;7361024;19;20030;-76
2023/01/13 14:00:31;;;;;;;8.77;1.95;;;9.70;1.00;;;;;;7374042;19;20042;-76
2023/01/13 14:03:02;;;;;;;;;;;9.60;1.00;;;;;;7383025;19;20015;-76
2023/01/13 14:05:34;;;;;;;4.10;1.45;;;9.50;1.00;;;;;;7359981;19;19994;-76
2023/01/13 14:08:14;;;;;;;5.28;1.27;;;9.50;1.00;;;;;;7359519;19;20066;-76
2023/01/13 14:10:46;;;;;;;7.85;1.10;;;9.40;1.00;;;;;;7355229;19;20046;-76
2023/01/13 14:13:17;;;;;;;4.25;1.10;;;9.30;1.00;;;;;;7361965;19;20039;-74
2023/01/13 14:15:50;;;;;;;4.55;1.02;;;9.20;1.00;;;;;;7361185;19;20011;-75
2023/01/13 14:18:22;;;;;;;6.80;1.27;;;9.20;1.00;;;;;;7382325;19;20049;-76
2023/01/13 14:20:57;;;;;;;4.82;1.00;;;9.00;1.00;;;;;;7354721;19;20013;-76
2023/01/13 14:23:29;;;;;;;2.95;0.98;;;8.80;1.00;;;;;;7360630;19;20835;-75
2023/01/13 14:26:04;;;;;;;2.25;0.90;;;8.80;1.00;;;;;;7360609;19;20066;-76
2023/01/13 14:28:38;;;;;;;2.83;0.80;;;8.70;1.00;;;;;;7359222;19;20111;-76
2023/01/13 14:31:12;;;;;;;1.70;0.80;;;8.60;1.00;;;;;;7355715;19;20011;-76
2023/01/13 14:33:47;;;;;;;3.63;1.05;;;8.60;1.00;;;;;;7361307;19;20006;-76
2023/01/13 14:36:20;;;;;;;2.30;0.80;;;8.60;1.00;;;;;;7381872;19;20021;-75
2023/01/13 14:39:13;;;;;;;1.23;0.70;;;8.50;1.00;;;;;;7359456;19;20015;-76
2023/01/13 14:41:49;;;;;;;2.55;0.73;;;8.50;1.00;;;;;;7355909;19;20013;-74